createdAt,value
2023-06-25T00:00:26.545Z,10.52
2023-06-25T00:05:28.117Z,9.75
2023-06-25T00:10:30.793Z,10.40
2023-06-25T00:15:32.418Z,10.07
2023-06-25T00:20:34.282Z,11.48
2023-06-25T00:25:36.258Z,11.90
2023-06-25T00:30:39.671Z,10.57
2023-06-25T00:35:50.470Z,12.75
2023-06-25T00:40:52.075Z,11.07
2023-06-25T00:45:53.710Z,14.05
2023-06-25T00:51:02.100Z,14.00
2023-06-25T00:56:04.625Z,12.80
2023-06-25T01:01:18.613Z,13.32
2023-06-25T01:06:30.438Z,11.50
2023-06-25T01:11:32.131Z,12.65
2023-06-25T01:16:33.699Z,12.35
2023-06-25T01:21:36.568Z,14.32
2023-06-25T01:26:38.135Z,10.95
2023-06-25T01:31:41.706Z,12.10
2023-06-25T01:36:43.670Z,12.90
2023-06-25T01:41:45.882Z,15.20
2023-06-25T01:46:47.474Z,11.98
2023-06-25T01:51:49.293Z,12.77
2023-06-25T01:56:50.856Z,13.45
2023-06-25T02:01:52.456Z,13.45
2023-06-25T02:06:54.455Z,12.70
2023-06-25T02:11:56.114Z,13.48
2023-06-25T02:16:57.768Z,13.82
2023-06-25T02:21:59.393Z,13.93
2023-06-25T02:27:01.048Z,14.60
2023-06-25T02:32:02.590Z,15.35
2023-06-25T02:37:14.870Z,15.43
2023-06-25T02:42:16.374Z,17.23
2023-06-25T02:47:18.204Z,15.27
2023-06-25T02:52:19.879Z,16.27
2023-06-25T02:57:24.349Z,16.40
2023-06-25T03:02:26.635Z,15.23
2023-06-25T03:12:29.862Z,15.95
2023-06-25T03:17:31.431Z,15.17
2023-06-25T03:22:33.039Z,15.35
2023-06-25T03:27:35.281Z,15.80
2023-06-25T03:37:38.606Z,16.75
2023-06-25T03:42:40.157Z,19.48
2023-06-25T03:47:41.937Z,21.30
2023-06-25T03:52:43.557Z,23.00
2023-06-25T03:57:45.091Z,23.00
2023-06-25T04:02:46.841Z,21.47
2023-06-25T04:07:48.420Z,23.10
2023-06-25T04:12:49.953Z,22.53
2023-06-25T04:17:51.734Z,18.63
2023-06-25T04:22:53.692Z,16.90
2023-06-25T04:27:56.427Z,17.58
2023-06-25T04:32:58.092Z,17.80
2023-06-25T04:37:59.870Z,16.80
2023-06-25T04:43:01.400Z,17.15
2023-06-25T04:48:03.019Z,16.73
2023-06-25T04:53:04.604Z,14.13
2023-06-25T04:58:06.215Z,17.88
2023-06-25T05:03:07.830Z,14.43
2023-06-25T05:08:09.923Z,14.43
2023-06-25T05:13:11.458Z,16.45
2023-06-25T05:18:13.085Z,15.23
2023-06-25T05:23:14.691Z,12.43
2023-06-25T05:28:16.225Z,12.85
2023-06-25T05:33:17.748Z,11.90
2023-06-25T05:38:19.287Z,12.43
2023-06-25T05:43:20.870Z,11.82
2023-06-25T05:48:22.383Z,12.20
2023-06-25T05:53:25.235Z,9.88
2023-06-25T05:58:26.795Z,11.38
2023-06-25T06:03:28.340Z,11.95
2023-06-25T06:08:29.934Z,10.68
2023-06-25T06:13:31.822Z,10.52
2023-06-25T06:23:34.874Z,10.97
2023-06-25T06:28:36.536Z,11.40
2023-06-25T06:33:40.006Z,11.35
2023-06-25T06:38:41.720Z,10.13
2023-06-25T06:43:43.253Z,9.70
2023-06-25T06:48:44.812Z,9.32
2023-06-25T06:53:46.348Z,11.25
2023-06-25T06:58:47.999Z,9.50
2023-06-25T07:03:49.629Z,10.63
2023-06-25T07:08:51.551Z,9.32
2023-06-25T07:13:53.137Z,9.75
2023-06-25T07:18:54.980Z,10.00
2023-06-25T07:23:56.515Z,10.77
2023-06-25T07:28:58.142Z,10.82
2023-06-25T07:33:59.691Z,10.00
2023-06-25T07:39:04.436Z,11.10
2023-06-25T07:44:18.076Z,13.80
2023-06-25T07:49:27.450Z,11.40
2023-06-25T07:54:28.961Z,10.98
2023-06-25T07:59:36.037Z,10.13
2023-06-25T08:04:49.436Z,10.15
2023-06-25T08:09:54.102Z,12.20
2023-06-25T08:15:00.344Z,9.57
2023-06-25T08:25:08.705Z,10.38
2023-06-25T08:30:10.829Z,10.80
2023-06-25T08:35:12.389Z,11.45
2023-06-25T08:40:14.334Z,12.73
2023-06-25T08:45:15.893Z,11.27
2023-06-25T08:55:21.051Z,10.50
2023-06-25T09:00:22.768Z,10.23
2023-06-25T09:05:27.302Z,10.90
2023-06-25T09:10:32.652Z,10.52
2023-06-25T09:15:34.263Z,13.32
2023-06-25T09:20:36.096Z,13.43
2023-06-25T09:25:37.779Z,10.95
2023-06-25T09:30:40.388Z,15.45
2023-06-25T09:35:42.360Z,12.38
2023-06-25T09:40:44.328Z,10.25
2023-06-25T09:45:46.855Z,11.00
2023-06-25T09:50:50.056Z,10.43
2023-06-25T09:55:53.900Z,10.40
2023-06-25T10:00:56.339Z,10.95
2023-06-25T10:05:58.018Z,12.85
2023-06-25T10:11:02.404Z,10.90
2023-06-25T10:16:04.862Z,12.48
2023-06-25T10:21:06.401Z,11.95
2023-06-25T10:26:08.014Z,9.23
2023-06-25T10:31:14.640Z,9.65
2023-06-25T10:36:16.484Z,17.77
2023-06-25T10:41:26.513Z,10.45
2023-06-25T10:46:35.876Z,10.52
2023-06-25T10:51:38.736Z,10.50
2023-06-25T10:56:40.443Z,9.77
2023-06-25T11:01:42.179Z,9.52
2023-06-25T11:06:43.880Z,9.82
2023-06-25T11:11:45.598Z,11.25
2023-06-25T11:16:47.774Z,14.23
2023-06-25T11:21:50.903Z,10.90
2023-06-25T11:26:58.954Z,9.20
2023-06-25T11:32:00.544Z,9.60
2023-06-25T11:37:12.531Z,11.18
2023-06-25T11:42:26.656Z,9.93
2023-06-25T11:47:28.282Z,9.77
2023-06-25T11:52:29.879Z,11.10
2023-06-25T11:57:31.436Z,9.32
2023-06-25T12:02:48.360Z,8.30
2023-06-25T12:07:51.499Z,9.00
2023-06-25T12:12:55.949Z,10.93
2023-06-25T12:17:57.562Z,10.20
2023-06-25T12:22:59.083Z,8.68
2023-06-25T12:28:01.390Z,8.45
2023-06-25T12:33:03.143Z,9.70
2023-06-25T12:38:05.126Z,8.38
2023-06-25T12:43:07.021Z,8.88
2023-06-25T12:48:08.545Z,7.32
2023-06-25T12:53:10.563Z,8.35
2023-06-25T12:58:12.332Z,8.25
2023-06-25T13:03:13.987Z,8.65
2023-06-25T13:08:15.699Z,7.88
2023-06-25T13:13:17.222Z,7.32
2023-06-25T13:18:19.877Z,7.72
2023-06-25T13:23:21.619Z,7.63
2023-06-25T13:28:23.294Z,9.35
2023-06-25T13:33:24.834Z,9.65
2023-06-25T13:38:27.495Z,8.38
2023-06-25T13:43:29.086Z,7.53
2023-06-25T13:48:30.663Z,11.80
2023-06-25T13:53:32.281Z,7.28
2023-06-25T13:58:33.882Z,7.35
2023-06-25T14:03:35.517Z,10.80
2023-06-25T14:08:37.147Z,8.02
2023-06-25T14:13:38.665Z,7.35
2023-06-25T14:18:40.226Z,9.40
2023-06-25T14:23:41.857Z,7.65
2023-06-25T14:28:43.544Z,6.85
2023-06-25T14:33:45.439Z,8.68
2023-06-25T14:38:48.129Z,9.30
2023-06-25T14:43:49.761Z,7.53
2023-06-25T14:48:51.309Z,6.60
2023-06-25T14:53:52.975Z,6.32
2023-06-25T14:58:54.628Z,7.40
2023-06-25T15:03:56.403Z,7.60
2023-06-25T15:08:58.141Z,8.55
2023-06-25T15:14:00.958Z,6.45
2023-06-25T15:19:02.574Z,6.90
2023-06-25T15:24:04.509Z,14.10
2023-06-25T15:29:06.820Z,7.22
2023-06-25T15:34:08.774Z,6.55
2023-06-25T15:39:10.373Z,7.38
2023-06-25T15:44:12.090Z,6.07
2023-06-25T15:49:13.734Z,6.45
2023-06-25T15:59:20.204Z,6.13
2023-06-25T16:04:21.730Z,6.13
2023-06-25T16:09:23.317Z,30.33
2023-06-25T16:14:26.051Z,5.97
2023-06-25T16:19:51.662Z,7.40
2023-06-25T16:24:50.297Z,5.13
2023-06-25T16:29:52.318Z,6.45
2023-06-25T16:34:53.887Z,6.32
2023-06-25T16:39:55.607Z,4.97
2023-06-25T16:44:59.506Z,5.60
2023-06-25T16:50:01.373Z,7.03
2023-06-25T16:55:03.310Z,4.80
2023-06-25T17:00:06.047Z,6.57
2023-06-25T17:05:10.293Z,5.43
2023-06-25T17:10:11.996Z,5.85
2023-06-25T17:15:13.765Z,5.55
2023-06-25T17:20:15.468Z,5.28
2023-06-25T17:25:17.158Z,6.90
2023-06-25T17:30:18.814Z,5.13
2023-06-25T17:35:20.371Z,7.07
2023-06-25T17:40:22.062Z,4.68
2023-06-25T17:45:23.691Z,5.20
2023-06-25T17:50:26.231Z,6.38
2023-06-25T17:55:27.984Z,8.18
2023-06-25T18:00:30.179Z,5.57
2023-06-25T18:05:32.120Z,7.13
2023-06-25T18:10:33.732Z,6.03
2023-06-25T18:15:40.258Z,7.35
2023-06-25T18:20:41.924Z,5.97
2023-06-25T18:25:43.722Z,5.13
2023-06-25T18:30:45.883Z,5.53
2023-06-25T18:35:47.619Z,7.47
2023-06-25T18:40:49.246Z,5.47
2023-06-25T18:45:51.722Z,5.47
2023-06-25T18:50:54.156Z,9.45
2023-06-25T18:55:57.500Z,7.32
2023-06-25T19:00:59.209Z,5.97
2023-06-25T19:11:02.537Z,7.18
2023-06-25T19:16:04.226Z,8.90
2023-06-25T19:21:05.748Z,8.50
2023-06-25T19:31:09.110Z,7.70
2023-06-25T19:41:12.578Z,9.48
2023-06-25T19:51:16.135Z,7.97
2023-06-25T19:56:17.821Z,10.48
2023-06-25T20:06:21.402Z,9.55
2023-06-25T20:11:23.741Z,10.77
2023-06-25T20:16:25.308Z,9.50
2023-06-25T20:21:26.852Z,9.30
2023-06-25T20:26:28.511Z,8.32
2023-06-25T20:31:30.109Z,9.30
2023-06-25T20:36:31.753Z,12.15
2023-06-25T20:41:34.617Z,13.07
2023-06-25T20:46:36.388Z,9.90
2023-06-25T20:51:37.974Z,10.30
2023-06-25T20:56:39.589Z,12.32
2023-06-25T21:01:41.181Z,12.18
2023-06-25T21:06:43.096Z,10.73
2023-06-25T21:11:44.799Z,12.85
2023-06-25T21:16:46.396Z,10.68
2023-06-25T21:21:47.953Z,11.43
2023-06-25T21:26:49.546Z,10.85
2023-06-25T21:31:51.171Z,7.97
2023-06-25T21:36:52.734Z,10.45
2023-06-25T21:41:54.321Z,10.25
2023-06-25T21:46:55.965Z,8.27
2023-06-25T21:52:00.873Z,8.27
2023-06-25T21:57:02.993Z,9.77
2023-06-25T22:02:05.175Z,11.00
2023-06-25T22:07:06.840Z,10.73
2023-06-25T22:12:08.537Z,10.32
2023-06-25T22:17:10.084Z,10.10
2023-06-25T22:22:11.694Z,9.50
2023-06-25T22:27:14.055Z,8.77
2023-06-25T22:32:15.780Z,10.27
2023-06-25T22:37:17.389Z,10.68
2023-06-25T22:42:18.961Z,9.93
2023-06-25T22:47:20.531Z,11.95
2023-06-25T22:52:22.077Z,10.07
2023-06-25T22:57:23.618Z,13.18
2023-06-25T23:02:25.554Z,10.27
2023-06-25T23:07:27.234Z,10.70
2023-06-25T23:12:28.830Z,10.65
2023-06-25T23:17:30.449Z,9.68
2023-06-25T23:22:34.236Z,9.48
2023-06-25T23:27:36.132Z,11.38
2023-06-25T23:37:45.400Z,10.68
2023-06-25T23:42:46.929Z,11.05
2023-06-25T23:47:49.377Z,8.68
2023-06-25T23:52:51.019Z,9.68
2023-06-25T23:57:52.574Z,10.40
